sensor_id;sensor_type;location;lat;lon;timestamp;temperature;humidity
2955;DHT22;1487;51.470;6.938;2023-03-05T00:02:05;4.80;99.90
2955;DHT22;1487;51.470;6.938;2023-03-05T00:04:32;4.80;99.90
2955;DHT22;1487;51.470;6.938;2023-03-05T00:06:59;4.80;99.90
2955;DHT22;1487;51.470;6.938;2023-03-05T00:09:25;4.80;99.90
2955;DHT22;1487;51.470;6.938;2023-03-05T00:11:52;4.80;99.90
2955;DHT22;1487;51.470;6.938;2023-03-05T00:14:19;4.80;99.90
2955;DHT22;1487;51.470;6.938;2023-03-05T00:16:46;4.70;99.90
2955;DHT22;1487;51.470;6.938;2023-03-05T00:19:14;4.60;99.90
2955;DHT22;1487;51.470;6.938;2023-03-05T00:21:41;4.50;99.90
2955;DHT22;1487;51.470;6.938;2023-03-05T00:24:11;4.50;99.90
2955;DHT22;1487;51.470;6.938;2023-03-05T00:26:39;4.60;99.90
2955;DHT22;1487;51.470;6.938;2023-03-05T00:29:07;4.60;99.90
2955;DHT22;1487;51.470;6.938;2023-03-05T00:31:35;4.60;99.90
2955;DHT22;1487;51.470;6.938;2023-03-05T00:34:04;4.50;99.90
2955;DHT22;1487;51.470;6.938;2023-03-05T00:36:34;4.50;99.90
2955;DHT22;1487;51.470;6.938;2023-03-05T00:39:04;4.50;99.90
2955;DHT22;1487;51.470;6.938;2023-03-05T00:41:31;4.50;99.90
2955;DHT22;1487;51.470;6.938;2023-03-05T00:43:58;4.50;99.90
2955;DHT22;1487;51.470;6.938;2023-03-05T00:46:25;4.40;99.90
2955;DHT22;1487;51.470;6.938;2023-03-05T00:48:52;4.40;99.90
2955;DHT22;1487;51.470;6.938;2023-03-05T00:51:19;4.40;99.90
2955;DHT22;1487;51.470;6.938;2023-03-05T00:53:47;4.40;99.90
2955;DHT22;1487;51.470;6.938;2023-03-05T00:56:14;4.40;99.90
2955;DHT22;1487;51.470;6.938;2023-03-05T00:58:41;4.40;99.90
2955;DHT22;1487;51.470;6.938;2023-03-05T01:01:08;4.40;99.90
2955;DHT22;1487;51.470;6.938;2023-03-05T01:03:35;4.40;99.90
2955;DHT22;1487;51.470;6.938;2023-03-05T01:06:04;4.40;99.90
2955;DHT22;1487;51.470;6.938;2023-03-05T01:08:31;4.40;99.90
2955;DHT22;1487;51.470;6.938;2023-03-05T01:11:00;4.40;99.90
2955;DHT22;1487;51.470;6.938;2023-03-05T01:13:27;4.40;99.90
2955;DHT22;1487;51.470;6.938;2023-03-05T01:15:54;4.50;99.90
2955;DHT22;1487;51.470;6.938;2023-03-05T01:18:23;4.50;99.90
2955;DHT22;1487;51.470;6.938;2023-03-05T01:20:50;4.40;99.90
2955;DHT22;1487;51.470;6.938;2023-03-05T01:23:17;4.30;99.90
2955;DHT22;1487;51.470;6.938;2023-03-05T01:25:44;4.40;99.90
2955;DHT22;1487;51.470;6.938;2023-03-05T01:28:12;4.40;99.90
2955;DHT22;1487;51.470;6.938;2023-03-05T01:30:39;4.40;99.90
2955;DHT22;1487;51.470;6.938;2023-03-05T01:33:06;4.40;99.90
2955;DHT22;1487;51.470;6.938;2023-03-05T01:35:34;4.40;99.90
2955;DHT22;1487;51.470;6.938;2023-03-05T01:38:01;4.40;99.90
2955;DHT22;1487;51.470;6.938;2023-03-05T01:40:29;4.30;99.90
2955;DHT22;1487;51.470;6.938;2023-03-05T01:42:58;4.30;99.90
2955;DHT22;1487;51.470;6.938;2023-03-05T01:45:29;4.20;99.90
2955;DHT22;1487;51.470;6.938;2023-03-05T01:47:57;4.10;99.90
2955;DHT22;1487;51.470;6.938;2023-03-05T01:50:25;4.10;99.90
2955;DHT22;1487;51.470;6.938;2023-03-05T01:52:56;4.00;99.90
2955;DHT22;1487;51.470;6.938;2023-03-05T01:55:25;3.90;99.90
2955;DHT22;1487;51.470;6.938;2023-03-05T01:57:56;3.90;99.90
2955;DHT22;1487;51.470;6.938;2023-03-05T02:00:28;3.90;99.90
2955;DHT22;1487;51.470;6.938;2023-03-05T02:02:56;3.90;99.90
2955;DHT22;1487;51.470;6.938;2023-03-05T02:05:28;3.80;99.90
2955;DHT22;1487;51.470;6.938;2023-03-05T02:07:56;3.90;99.90
2955;DHT22;1487;51.470;6.938;2023-03-05T02:10:26;3.90;99.90
2955;DHT22;1487;51.470;6.938;2023-03-05T02:12:55;3.90;99.90
2955;DHT22;1487;51.470;6.938;2023-03-05T02:15:24;4.00;99.90
2955;DHT22;1487;51.470;6.938;2023-03-05T02:17:52;4.00;99.90
2955;DHT22;1487;51.470;6.938;2023-03-05T02:20:21;4.00;99.90
2955;DHT22;1487;51.470;6.938;2023-03-05T02:22:50;4.00;99.90
2955;DHT22;1487;51.470;6.938;2023-03-05T02:25:19;3.90;99.90
2955;DHT22;1487;51.470;6.938;2023-03-05T02:27:51;3.90;99.90
2955;DHT22;1487;51.470;6.938;2023-03-05T02:30:20;3.90;99.90
2955;DHT22;1487;51.470;6.938;2023-03-05T02:32:47;3.90;99.90
2955;DHT22;1487;51.470;6.938;2023-03-05T02:35:14;3.90;99.90
2955;DHT22;1487;51.470;6.938;2023-03-05T02:37:41;3.90;99.90
2955;DHT22;1487;51.470;6.938;2023-03-05T02:40:11;3.90;99.90
2955;DHT22;1487;51.470;6.938;2023-03-05T02:42:38;3.90;99.90
2955;DHT22;1487;51.470;6.938;2023-03-05T02:45:06;3.90;99.90
2955;DHT22;1487;51.470;6.938;2023-03-05T02:47:34;3.90;99.90
2955;DHT22;1487;51.470;6.938;2023-03-05T02:50:01;3.90;99.90
2955;DHT22;1487;51.470;6.938;2023-03-05T02:52:28;3.90;99.90
2955;DHT22;1487;51.470;6.938;2023-03-05T02:54:56;3.90;99.90
2955;DHT22;1487;51.470;6.938;2023-03-05T02:57:24;3.90;99.90
2955;DHT22;1487;51.470;6.938;2023-03-05T02:59:51;4.00;99.90
2955;DHT22;1487;51.470;6.938;2023-03-05T03:02:18;4.00;99.90
2955;DHT22;1487;51.470;6.938;2023-03-05T03:04:45;4.00;99.90
2955;DHT22;1487;51.470;6.938;2023-03-05T03:07:12;4.00;99.90
2955;DHT22;1487;51.470;6.938;2023-03-05T03:09:40;4.00;99.90
2955;DHT22;1487;51.470;6.938;2023-03-05T03:12:08;4.00;99.90
2955;DHT22;1487;51.470;6.938;2023-03-05T03:14:39;4.00;99.90
2955;DHT22;1487;51.470;6.938;2023-03-05T03:17:07;3.90;99.90
2955;DHT22;1487;51.470;6.938;2023-03-05T03:19:35;3.90;99.90
2955;DHT22;1487;51.470;6.938;2023-03-05T03:22:02;4.00;99.90
2955;DHT22;1487;51.470;6.938;2023-03-05T03:24:30;4.00;99.90
2955;DHT22;1487;51.470;6.938;2023-03-05T03:26:57;4.00;99.90
2955;DHT22;1487;51.470;6.938;2023-03-05T03:29:23;3.90;99.90
2955;DHT22;1487;51.470;6.938;2023-03-05T03:31:52;3.90;99.90
2955;DHT22;1487;51.470;6.938;2023-03-05T03:34:19;3.90;99.90
2955;DHT22;1487;51.470;6.938;2023-03-05T03:36:47;3.90;99.90
2955;DHT22;1487;51.470;6.938;2023-03-05T03:39:15;3.90;99.90
2955;DHT22;1487;51.470;6.938;2023-03-05T03:41:44;3.90;99.90
2955;DHT22;1487;51.470;6.938;2023-03-05T03:44:12;3.90;99.90
2955;DHT22;1487;51.470;6.938;2023-03-05T03:46:39;3.90;99.90
2955;DHT22;1487;51.470;6.938;2023-03-05T03:49:13;3.90;99.90
2955;DHT22;1487;51.470;6.938;2023-03-05T03:51:40;3.90;99.90
2955;DHT22;1487;51.470;6.938;2023-03-05T03:54:07;3.90;99.90
2955;DHT22;1487;51.470;6.938;2023-03-05T03:56:34;3.90;99.90
2955;DHT22;1487;51.470;6.938;2023-03-05T03:59:01;3.90;99.90
2955;DHT22;1487;51.470;6.938;2023-03-05T04:01:28;3.90;99.90
2955;DHT22;1487;51.470;6.938;2023-03-05T04:03:55;3.90;99.90
2955;DHT22;1487;51.470;6.938;2023-03-05T04:06:23;3.90;99.90
2955;DHT22;1487;51.470;6.938;2023-03-05T04:08:50;3.90;99.90
2955;DHT22;1487;51.470;6.938;2023-03-05T04:11:17;3.90;99.90
2955;DHT22;1487;51.470;6.938;2023-03-05T04:13:44;3.90;99.90
2955;DHT22;1487;51.470;6.938;2023-03-05T04:16:11;3.80;99.90
2955;DHT22;1487;51.470;6.938;2023-03-05T04:18:38;3.80;99.90
2955;DHT22;1487;51.470;6.938;2023-03-05T04:21:05;3.80;99.90
2955;DHT22;1487;51.470;6.938;2023-03-05T04:23:33;3.80;99.90
2955;DHT22;1487;51.470;6.938;2023-03-05T04:26:00;3.80;99.90
2955;DHT22;1487;51.470;6.938;2023-03-05T04:28:27;3.70;99.90
2955;DHT22;1487;51.470;6.938;2023-03-05T04:30:54;3.70;99.90
2955;DHT22;1487;51.470;6.938;2023-03-05T04:33:21;3.70;99.90
2955;DHT22;1487;51.470;6.938;2023-03-05T04:35:48;3.60;99.90
2955;DHT22;1487;51.470;6.938;2023-03-05T04:38:15;3.60;99.90
2955;DHT22;1487;51.470;6.938;2023-03-05T04:40:43;3.60;99.90
2955;DHT22;1487;51.470;6.938;2023-03-05T04:43:10;3.60;99.90
2955;DHT22;1487;51.470;6.938;2023-03-05T04:45:39;3.60;99.90
2955;DHT22;1487;51.470;6.938;2023-03-05T04:48:06;3.60;99.90
2955;DHT22;1487;51.470;6.938;2023-03-05T04:50:33;3.70;99.90
2955;DHT22;1487;51.470;6.938;2023-03-05T04:53:00;3.70;99.90
2955;DHT22;1487;51.470;6.938;2023-03-05T04:55:27;3.70;99.90
2955;DHT22;1487;51.470;6.938;2023-03-05T04:57:55;3.70;99.90
2955;DHT22;1487;51.470;6.938;2023-03-05T05:00:22;3.70;99.90
2955;DHT22;1487;51.470;6.938;2023-03-05T05:02:50;3.70;99.90
2955;DHT22;1487;51.470;6.938;2023-03-05T05:05:18;3.70;99.90
2955;DHT22;1487;51.470;6.938;2023-03-05T05:07:46;3.70;99.90
2955;DHT22;1487;51.470;6.938;2023-03-05T05:10:14;3.70;99.90
2955;DHT22;1487;51.470;6.938;2023-03-05T05:12:41;3.80;99.90
2955;DHT22;1487;51.470;6.938;2023-03-05T05:15:11;3.80;99.90
2955;DHT22;1487;51.470;6.938;2023-03-05T05:17:38;3.80;99.90
2955;DHT22;1487;51.470;6.938;2023-03-05T05:20:06;3.70;99.90
2955;DHT22;1487;51.470;6.938;2023-03-05T05:22:37;3.70;99.90
2955;DHT22;1487;51.470;6.938;2023-03-05T05:25:04;3.70;99.90
2955;DHT22;1487;51.470;6.938;2023-03-05T05:27:31;3.70;99.90
2955;DHT22;1487;51.470;6.938;2023-03-05T05:29:58;3.60;99.90
2955;DHT22;1487;51.470;6.938;2023-03-05T05:32:26;3.70;99.90
2955;DHT22;1487;51.470;6.938;2023-03-05T05:34:54;3.70;99.90
2955;DHT22;1487;51.470;6.938;2023-03-05T05:37:21;3.70;99.90
2955;DHT22;1487;51.470;6.938;2023-03-05T05:39:48;3.70;99.90
2955;DHT22;1487;51.470;6.938;2023-03-05T05:42:15;3.80;99.90
2955;DHT22;1487;51.470;6.938;2023-03-05T05:44:43;3.80;99.90
2955;DHT22;1487;51.470;6.938;2023-03-05T05:47:10;3.80;99.90
2955;DHT22;1487;51.470;6.938;2023-03-05T05:49:38;3.80;99.90
2955;DHT22;1487;51.470;6.938;2023-03-05T05:52:05;3.80;99.90
2955;DHT22;1487;51.470;6.938;2023-03-05T05:54:32;3.90;99.90
2955;DHT22;1487;51.470;6.938;2023-03-05T05:56:59;3.90;99.90
2955;DHT22;1487;51.470;6.938;2023-03-05T05:59:26;3.90;99.90
2955;DHT22;1487;51.470;6.938;2023-03-05T06:01:53;3.90;99.90
2955;DHT22;1487;51.470;6.938;2023-03-05T06:04:20;3.90;99.90
2955;DHT22;1487;51.470;6.938;2023-03-05T06:06:48;3.80;99.90
2955;DHT22;1487;51.470;6.938;2023-03-05T06:09:15;3.80;99.90
2955;DHT22;1487;51.470;6.938;2023-03-05T06:11:42;3.80;99.90
2955;DHT22;1487;51.470;6.938;2023-03-05T06:14:09;3.90;99.90
2955;DHT22;1487;51.470;6.938;2023-03-05T06:16:37;3.90;99.90
2955;DHT22;1487;51.470;6.938;2023-03-05T06:19:04;3.90;99.90
2955;DHT22;1487;51.470;6.938;2023-03-05T06:21:31;3.80;99.90
2955;DHT22;1487;51.470;6.938;2023-03-05T06:24:00;3.80;99.90
2955;DHT22;1487;51.470;6.938;2023-03-05T06:26:27;3.90;99.90
2955;DHT22;1487;51.470;6.938;2023-03-05T06:28:54;3.80;99.90
2955;DHT22;1487;51.470;6.938;2023-03-05T06:31:22;3.90;99.90
2955;DHT22;1487;51.470;6.938;2023-03-05T06:33:50;3.90;99.90
2955;DHT22;1487;51.470;6.938;2023-03-05T06:36:19;4.00;99.90
2955;DHT22;1487;51.470;6.938;2023-03-05T06:38:47;4.00;99.90
2955;DHT22;1487;51.470;6.938;2023-03-05T06:41:17;4.00;99.90
2955;DHT22;1487;51.470;6.938;2023-03-05T06:43:45;4.00;99.90
2955;DHT22;1487;51.470;6.938;2023-03-05T06:46:14;4.00;99.90
2955;DHT22;1487;51.470;6.938;2023-03-05T06:48:42;4.00;99.90
2955;DHT22;1487;51.470;6.938;2023-03-05T06:51:13;4.00;99.90
2955;DHT22;1487;51.470;6.938;2023-03-05T06:53:40;4.00;99.90
2955;DHT22;1487;51.470;6.938;2023-03-05T06:56:07;4.10;99.90
2955;DHT22;1487;51.470;6.938;2023-03-05T06:58:36;4.10;99.90
2955;DHT22;1487;51.470;6.938;2023-03-05T07:01:04;4.10;99.90
2955;DHT22;1487;51.470;6.938;2023-03-05T07:03:31;4.10;99.90
2955;DHT22;1487;51.470;6.938;2023-03-05T07:06:02;4.20;99.90
2955;DHT22;1487;51.470;6.938;2023-03-05T07:08:29;4.20;99.90
2955;DHT22;1487;51.470;6.938;2023-03-05T07:10:56;4.20;99.90
2955;DHT22;1487;51.470;6.938;2023-03-05T07:13:23;4.20;99.90
2955;DHT22;1487;51.470;6.938;2023-03-05T07:15:51;4.20;99.90
2955;DHT22;1487;51.470;6.938;2023-03-05T07:18:18;4.30;99.90
2955;DHT22;1487;51.470;6.938;2023-03-05T07:20:45;4.30;99.90
2955;DHT22;1487;51.470;6.938;2023-03-05T07:23:12;4.30;99.90
2955;DHT22;1487;51.470;6.938;2023-03-05T07:25:39;4.40;99.90
2955;DHT22;1487;51.470;6.938;2023-03-05T07:28:07;4.40;99.90
2955;DHT22;1487;51.470;6.938;2023-03-05T07:30:35;4.50;99.90
2955;DHT22;1487;51.470;6.938;2023-03-05T07:33:03;4.60;99.90
2955;DHT22;1487;51.470;6.938;2023-03-05T07:35:30;4.80;99.90
2955;DHT22;1487;51.470;6.938;2023-03-05T07:37:57;4.80;99.90
2955;DHT22;1487;51.470;6.938;2023-03-05T07:40:23;4.90;99.90
2955;DHT22;1487;51.470;6.938;2023-03-05T07:42:50;4.90;99.90
2955;DHT22;1487;51.470;6.938;2023-03-05T07:45:18;4.80;99.90
2955;DHT22;1487;51.470;6.938;2023-03-05T07:47:45;4.80;99.90
2955;DHT22;1487;51.470;6.938;2023-03-05T07:50:15;4.90;99.90
2955;DHT22;1487;51.470;6.938;2023-03-05T07:52:42;4.80;99.90
2955;DHT22;1487;51.470;6.938;2023-03-05T07:55:09;4.80;99.90
2955;DHT22;1487;51.470;6.938;2023-03-05T07:57:36;4.80;99.90
2955;DHT22;1487;51.470;6.938;2023-03-05T08:00:04;4.70;99.90
2955;DHT22;1487;51.470;6.938;2023-03-05T08:02:31;4.70;99.90
2955;DHT22;1487;51.470;6.938;2023-03-05T08:04:58;4.70;99.90
2955;DHT22;1487;51.470;6.938;2023-03-05T08:07:27;4.70;99.90
2955;DHT22;1487;51.470;6.938;2023-03-05T08:09:54;4.70;99.90
2955;DHT22;1487;51.470;6.938;2023-03-05T08:12:21;4.70;99.90
2955;DHT22;1487;51.470;6.938;2023-03-05T08:14:48;4.70;99.90
2955;DHT22;1487;51.470;6.938;2023-03-05T08:17:18;4.60;99.90
2955;DHT22;1487;51.470;6.938;2023-03-05T08:19:45;4.50;99.90
2955;DHT22;1487;51.470;6.938;2023-03-05T08:22:12;4.40;99.90
2955;DHT22;1487;51.470;6.938;2023-03-05T08:24:42;4.30;99.90
2955;DHT22;1487;51.470;6.938;2023-03-05T08:27:09;4.30;99.90
2955;DHT22;1487;51.470;6.938;2023-03-05T08:29:35;4.30;99.90
2955;DHT22;1487;51.470;6.938;2023-03-05T08:32:03;4.20;99.90
2955;DHT22;1487;51.470;6.938;2023-03-05T08:34:29;4.30;99.90
2955;DHT22;1487;51.470;6.938;2023-03-05T08:36:57;4.30;99.90
2955;DHT22;1487;51.470;6.938;2023-03-05T08:39:23;4.20;99.90
2955;DHT22;1487;51.470;6.938;2023-03-05T08:41:52;4.30;99.90
2955;DHT22;1487;51.470;6.938;2023-03-05T08:44:18;4.30;99.90
2955;DHT22;1487;51.470;6.938;2023-03-05T08:46:45;4.30;99.90
2955;DHT22;1487;51.470;6.938;2023-03-05T08:49:12;4.30;99.90
2955;DHT22;1487;51.470;6.938;2023-03-05T08:51:39;4.20;99.90
2955;DHT22;1487;51.470;6.938;2023-03-05T08:54:06;4.20;99.90
2955;DHT22;1487;51.470;6.938;2023-03-05T08:56:33;4.30;99.90
2955;DHT22;1487;51.470;6.938;2023-03-05T08:59:01;4.30;99.90
2955;DHT22;1487;51.470;6.938;2023-03-05T09:01:29;4.40;99.90
2955;DHT22;1487;51.470;6.938;2023-03-05T09:03:56;4.30;99.90
2955;DHT22;1487;51.470;6.938;2023-03-05T09:06:23;4.30;99.90
2955;DHT22;1487;51.470;6.938;2023-03-05T09:08:50;4.30;99.90
2955;DHT22;1487;51.470;6.938;2023-03-05T09:11:17;4.30;99.90
2955;DHT22;1487;51.470;6.938;2023-03-05T09:13:44;4.40;99.90
2955;DHT22;1487;51.470;6.938;2023-03-05T09:16:14;4.40;99.90
2955;DHT22;1487;51.470;6.938;2023-03-05T09:18:44;4.50;99.90
2955;DHT22;1487;51.470;6.938;2023-03-05T09:21:13;4.60;99.90
2955;DHT22;1487;51.470;6.938;2023-03-05T09:23:41;4.60;99.90
2955;DHT22;1487;51.470;6.938;2023-03-05T09:26:09;4.60;99.90
2955;DHT22;1487;51.470;6.938;2023-03-05T09:28:38;4.60;99.90
2955;DHT22;1487;51.470;6.938;2023-03-05T09:31:05;4.70;99.90
2955;DHT22;1487;51.470;6.938;2023-03-05T09:33:34;4.70;99.90
2955;DHT22;1487;51.470;6.938;2023-03-05T09:36:02;4.80;99.90
2955;DHT22;1487;51.470;6.938;2023-03-05T09:38:30;5.00;99.90
2955;DHT22;1487;51.470;6.938;2023-03-05T09:41:01;5.10;99.90
2955;DHT22;1487;51.470;6.938;2023-03-05T09:43:38;5.30;99.90
2955;DHT22;1487;51.470;6.938;2023-03-05T09:46:16;5.50;99.90
2955;DHT22;1487;51.470;6.938;2023-03-05T09:48:51;5.70;99.90
2955;DHT22;1487;51.470;6.938;2023-03-05T09:51:25;5.80;99.90
2955;DHT22;1487;51.470;6.938;2023-03-05T09:53:59;6.00;99.90
2955;DHT22;1487;51.470;6.938;2023-03-05T09:56:31;6.10;99.90
2955;DHT22;1487;51.470;6.938;2023-03-05T09:59:03;6.40;99.90
2955;DHT22;1487;51.470;6.938;2023-03-05T10:01:38;7.10;99.90
2955;DHT22;1487;51.470;6.938;2023-03-05T10:04:12;7.60;99.90
2955;DHT22;1487;51.470;6.938;2023-03-05T10:06:46;7.70;99.90
2955;DHT22;1487;51.470;6.938;2023-03-05T10:09:19;7.70;99.90
2955;DHT22;1487;51.470;6.938;2023-03-05T10:11:52;7.50;99.90
2955;DHT22;1487;51.470;6.938;2023-03-05T10:14:25;7.30;99.90
2955;DHT22;1487;51.470;6.938;2023-03-05T10:17:08;7.10;99.90
2955;DHT22;1487;51.470;6.938;2023-03-05T10:20:00;6.90;99.90
2955;DHT22;1487;51.470;6.938;2023-03-05T10:22:32;6.80;99.90
2955;DHT22;1487;51.470;6.938;2023-03-05T10:25:16;7.10;99.90
2955;DHT22;1487;51.470;6.938;2023-03-05T10:27:49;7.50;99.90
2955;DHT22;1487;51.470;6.938;2023-03-05T10:30:32;7.70;99.90
2955;DHT22;1487;51.470;6.938;2023-03-05T10:33:16;7.90;99.90
2955;DHT22;1487;51.470;6.938;2023-03-05T10:39:05;7.60;99.90
2955;DHT22;1487;51.470;6.938;2023-03-05T10:41:39;7.50;99.90
2955;DHT22;1487;51.470;6.938;2023-03-05T10:44:11;7.30;99.90
2955;DHT22;1487;51.470;6.938;2023-03-05T10:46:43;7.10;99.90
2955;DHT22;1487;51.470;6.938;2023-03-05T10:49:17;6.80;99.90
2955;DHT22;1487;51.470;6.938;2023-03-05T10:51:51;6.60;99.90
2955;DHT22;1487;51.470;6.938;2023-03-05T10:54:23;6.40;99.90
2955;DHT22;1487;51.470;6.938;2023-03-05T10:57:02;6.10;99.90
2955;DHT22;1487;51.470;6.938;2023-03-05T10:59:30;5.70;99.90
2955;DHT22;1487;51.470;6.938;2023-03-05T11:02:05;5.10;99.90
2955;DHT22;1487;51.470;6.938;2023-03-05T11:04:35;4.80;99.90
2955;DHT22;1487;51.470;6.938;2023-03-05T11:07:30;4.40;99.90
2955;DHT22;1487;51.470;6.938;2023-03-05T11:10:17;4.10;99.90
2955;DHT22;1487;51.470;6.938;2023-03-05T11:12:46;4.00;99.90
2955;DHT22;1487;51.470;6.938;2023-03-05T11:15:26;4.00;99.90
2955;DHT22;1487;51.470;6.938;2023-03-05T11:18:06;4.00;99.90
2955;DHT22;1487;51.470;6.938;2023-03-05T11:20:41;3.90;99.90
2955;DHT22;1487;51.470;6.938;2023-03-05T11:23:12;4.00;99.90
2955;DHT22;1487;51.470;6.938;2023-03-05T11:25:54;4.10;99.90
2955;DHT22;1487;51.470;6.938;2023-03-05T11:28:25;4.40;99.90
2955;DHT22;1487;51.470;6.938;2023-03-05T11:31:06;4.70;99.90
2955;DHT22;1487;51.470;6.938;2023-03-05T11:33:35;5.00;99.90
2955;DHT22;1487;51.470;6.938;2023-03-05T11:36:27;5.30;99.90
2955;DHT22;1487;51.470;6.938;2023-03-05T11:38:58;5.60;99.90
2955;DHT22;1487;51.470;6.938;2023-03-05T11:41:31;5.90;99.90
2955;DHT22;1487;51.470;6.938;2023-03-05T11:44:00;6.50;99.90
2955;DHT22;1487;51.470;6.938;2023-03-05T11:46:36;7.40;99.90
2955;DHT22;1487;51.470;6.938;2023-03-05T11:49:05;8.20;99.90
2955;DHT22;1487;51.470;6.938;2023-03-05T11:51:39;9.10;99.90
2955;DHT22;1487;51.470;6.938;2023-03-05T11:54:13;9.60;99.90
2955;DHT22;1487;51.470;6.938;2023-03-05T11:56:42;10.20;99.90
2955;DHT22;1487;51.470;6.938;2023-03-05T11:59:13;10.80;99.90
2955;DHT22;1487;51.470;6.938;2023-03-05T12:01:45;11.30;99.90
2955;DHT22;1487;51.470;6.938;2023-03-05T12:04:12;11.40;99.90
2955;DHT22;1487;51.470;6.938;2023-03-05T12:06:42;11.00;99.90
2955;DHT22;1487;51.470;6.938;2023-03-05T12:09:17;10.80;99.90
2955;DHT22;1487;51.470;6.938;2023-03-05T12:11:48;10.60;99.90
2955;DHT22;1487;51.470;6.938;2023-03-05T12:14:21;10.30;99.90
2955;DHT22;1487;51.470;6.938;2023-03-05T12:16:52;9.70;99.90
2955;DHT22;1487;51.470;6.938;2023-03-05T12:19:39;9.40;99.90
2955;DHT22;1487;51.470;6.938;2023-03-05T12:22:16;9.20;99.90
2955;DHT22;1487;51.470;6.938;2023-03-05T12:24:46;9.00;99.90
2955;DHT22;1487;51.470;6.938;2023-03-05T12:27:15;8.50;99.90
2955;DHT22;1487;51.470;6.938;2023-03-05T12:29:48;8.30;99.90
2955;DHT22;1487;51.470;6.938;2023-03-05T12:35:35;8.00;99.90
2955;DHT22;1487;51.470;6.938;2023-03-05T12:40:46;7.50;99.90
2955;DHT22;1487;51.470;6.938;2023-03-05T12:43:28;7.50;99.90
2955;DHT22;1487;51.470;6.938;2023-03-05T12:49:01;7.40;99.90
2955;DHT22;1487;51.470;6.938;2023-03-05T12:51:54;7.40;99.90
2955;DHT22;1487;51.470;6.938;2023-03-05T12:54:29;7.60;99.90
2955;DHT22;1487;51.470;6.938;2023-03-05T12:56:58;7.70;99.90
2955;DHT22;1487;51.470;6.938;2023-03-05T12:59:31;8.00;99.90
2955;DHT22;1487;51.470;6.938;2023-03-05T13:02:13;8.10;99.90
2955;DHT22;1487;51.470;6.938;2023-03-05T13:04:44;8.20;99.90
2955;DHT22;1487;51.470;6.938;2023-03-05T13:07:16;8.30;99.90
2955;DHT22;1487;51.470;6.938;2023-03-05T13:09:51;8.40;99.90
2955;DHT22;1487;51.470;6.938;2023-03-05T13:12:18;8.80;99.90
2955;DHT22;1487;51.470;6.938;2023-03-05T13:14:47;9.20;99.90
2955;DHT22;1487;51.470;6.938;2023-03-05T13:17:34;9.50;99.90
2955;DHT22;1487;51.470;6.938;2023-03-05T13:22:47;9.50;99.90
2955;DHT22;1487;51.470;6.938;2023-03-05T13:25:16;9.30;99.90
2955;DHT22;1487;51.470;6.938;2023-03-05T13:27:45;9.00;99.90
2955;DHT22;1487;51.470;6.938;2023-03-05T13:30:22;8.70;99.90
2955;DHT22;1487;51.470;6.938;2023-03-05T13:32:51;8.60;99.90
2955;DHT22;1487;51.470;6.938;2023-03-05T13:35:19;8.50;99.90
2955;DHT22;1487;51.470;6.938;2023-03-05T13:37:48;8.30;99.90
2955;DHT22;1487;51.470;6.938;2023-03-05T13:40:21;8.10;99.90
2955;DHT22;1487;51.470;6.938;2023-03-05T13:42:49;8.00;99.90
2955;DHT22;1487;51.470;6.938;2023-03-05T13:45:26;8.00;99.90
2955;DHT22;1487;51.470;6.938;2023-03-05T13:47:56;8.10;99.90
2955;DHT22;1487;51.470;6.938;2023-03-05T13:50:25;8.50;99.90
2955;DHT22;1487;51.470;6.938;2023-03-05T13:52:54;8.90;99.90
2955;DHT22;1487;51.470;6.938;2023-03-05T13:55:21;9.10;99.90
2955;DHT22;1487;51.470;6.938;2023-03-05T13:57:50;9.20;99.90
2955;DHT22;1487;51.470;6.938;2023-03-05T14:00:30;9.10;99.90
2955;DHT22;1487;51.470;6.938;2023-03-05T14:03:00;9.20;99.90
2955;DHT22;1487;51.470;6.938;2023-03-05T14:05:28;9.20;99.90
2955;DHT22;1487;51.470;6.938;2023-03-05T14:07:58;9.10;99.90
2955;DHT22;1487;51.470;6.938;2023-03-05T14:10:31;9.20;99.90
2955;DHT22;1487;51.470;6.938;2023-03-05T14:13:01;9.40;99.90
2955;DHT22;1487;51.470;6.938;2023-03-05T14:15:30;9.40;99.90
2955;DHT22;1487;51.470;6.938;2023-03-05T14:18:17;9.60;99.90
2955;DHT22;1487;51.470;6.938;2023-03-05T14:21:00;9.30;99.90
2955;DHT22;1487;51.470;6.938;2023-03-05T14:23:38;9.00;99.90
2955;DHT22;1487;51.470;6.938;2023-03-05T14:26:25;9.00;99.90
2955;DHT22;1487;51.470;6.938;2023-03-05T14:28:55;9.10;99.90
2955;DHT22;1487;51.470;6.938;2023-03-05T14:31:23;9.20;99.90
2955;DHT22;1487;51.470;6.938;2023-03-05T14:33:52;8.90;99.90
2955;DHT22;1487;51.470;6.938;2023-03-05T14:36:22;8.30;99.90
2955;DHT22;1487;51.470;6.938;2023-03-05T14:38:51;7.80;99.90
2955;DHT22;1487;51.470;6.938;2023-03-05T14:41:34;7.60;99.90
2955;DHT22;1487;51.470;6.938;2023-03-05T14:44:04;7.60;99.90
2955;DHT22;1487;51.470;6.938;2023-03-05T14:46:34;7.70;99.90
2955;DHT22;1487;51.470;6.938;2023-03-05T14:49:01;7.80;99.90
2955;DHT22;1487;51.470;6.938;2023-03-05T14:51:28;7.80;99.90
2955;DHT22;1487;51.470;6.938;2023-03-05T14:53:57;7.90;99.90
2955;DHT22;1487;51.470;6.938;2023-03-05T14:56:25;7.90;99.90
2955;DHT22;1487;51.470;6.938;2023-03-05T14:58:53;7.80;99.90
2955;DHT22;1487;51.470;6.938;2023-03-05T15:01:21;7.90;99.90
2955;DHT22;1487;51.470;6.938;2023-03-05T15:03:48;8.00;99.90
2955;DHT22;1487;51.470;6.938;2023-03-05T15:06:19;8.20;99.90
2955;DHT22;1487;51.470;6.938;2023-03-05T15:08:46;8.50;99.90
2955;DHT22;1487;51.470;6.938;2023-03-05T15:11:15;8.60;99.90
2955;DHT22;1487;51.470;6.938;2023-03-05T15:13:42;8.30;99.90
2955;DHT22;1487;51.470;6.938;2023-03-05T15:16:12;8.00;99.90
2955;DHT22;1487;51.470;6.938;2023-03-05T15:18:40;7.90;99.90
2955;DHT22;1487;51.470;6.938;2023-03-05T15:21:10;7.90;99.90
2955;DHT22;1487;51.470;6.938;2023-03-05T15:23:37;7.70;99.90
2955;DHT22;1487;51.470;6.938;2023-03-05T15:26:05;7.80;99.90
2955;DHT22;1487;51.470;6.938;2023-03-05T15:28:35;7.80;99.90
2955;DHT22;1487;51.470;6.938;2023-03-05T15:31:03;7.80;99.90
2955;DHT22;1487;51.470;6.938;2023-03-05T15:33:32;7.80;99.90
2955;DHT22;1487;51.470;6.938;2023-03-05T15:35:59;7.80;99.90
2955;DHT22;1487;51.470;6.938;2023-03-05T15:38:26;7.60;99.90
2955;DHT22;1487;51.470;6.938;2023-03-05T15:40:53;7.60;99.90
2955;DHT22;1487;51.470;6.938;2023-03-05T15:43:20;7.60;99.90
2955;DHT22;1487;51.470;6.938;2023-03-05T15:45:48;7.60;99.90
2955;DHT22;1487;51.470;6.938;2023-03-05T15:48:15;7.60;99.90
2955;DHT22;1487;51.470;6.938;2023-03-05T15:50:43;7.50;99.90
2955;DHT22;1487;51.470;6.938;2023-03-05T15:53:13;7.50;99.90
2955;DHT22;1487;51.470;6.938;2023-03-05T15:55:43;7.30;99.90
2955;DHT22;1487;51.470;6.938;2023-03-05T15:58:14;7.30;99.90
2955;DHT22;1487;51.470;6.938;2023-03-05T16:00:41;7.20;99.90
2955;DHT22;1487;51.470;6.938;2023-03-05T16:03:10;7.10;99.90
2955;DHT22;1487;51.470;6.938;2023-03-05T16:05:37;6.90;99.90
2955;DHT22;1487;51.470;6.938;2023-03-05T16:08:05;6.90;99.90
2955;DHT22;1487;51.470;6.938;2023-03-05T16:10:32;6.90;99.90
2955;DHT22;1487;51.470;6.938;2023-03-05T16:13:02;6.80;99.90
2955;DHT22;1487;51.470;6.938;2023-03-05T16:15:30;6.70;99.90
2955;DHT22;1487;51.470;6.938;2023-03-05T16:18:00;6.60;99.90
2955;DHT22;1487;51.470;6.938;2023-03-05T16:20:29;6.50;99.90
2955;DHT22;1487;51.470;6.938;2023-03-05T16:22:56;6.40;99.90
2955;DHT22;1487;51.470;6.938;2023-03-05T16:25:23;6.40;99.90
2955;DHT22;1487;51.470;6.938;2023-03-05T16:27:51;6.20;99.90
2955;DHT22;1487;51.470;6.938;2023-03-05T16:30:18;6.10;99.90
2955;DHT22;1487;51.470;6.938;2023-03-05T16:32:47;6.10;99.90
2955;DHT22;1487;51.470;6.938;2023-03-05T16:35:14;6.10;99.90
2955;DHT22;1487;51.470;6.938;2023-03-05T16:37:42;6.10;99.90
2955;DHT22;1487;51.470;6.938;2023-03-05T16:40:11;6.00;99.90
2955;DHT22;1487;51.470;6.938;2023-03-05T16:42:38;6.00;99.90
2955;DHT22;1487;51.470;6.938;2023-03-05T16:45:06;6.00;99.90
2955;DHT22;1487;51.470;6.938;2023-03-05T16:47:33;6.00;99.90